sensor_id;sensor_type;location;lat;lon;timestamp;P1;durP1;ratioP1;P2;durP2;ratioP2
73557;SDS011;61829;53.286;10.434;2023-11-18T00:01:33;11.15;;;6.13;;
73557;SDS011;61829;53.286;10.434;2023-11-18T00:03:59;11.75;;;6.00;;
73557;SDS011;61829;53.286;10.434;2023-11-18T00:06:25;14.35;;;7.10;;
73557;SDS011;61829;53.286;10.434;2023-11-18T00:08:52;10.52;;;6.03;;
73557;SDS011;61829;53.286;10.434;2023-11-18T00:11:18;10.82;;;5.88;;
73557;SDS011;61829;53.286;10.434;2023-11-18T00:13:44;10.00;;;6.05;;
73557;SDS011;61829;53.286;10.434;2023-11-18T00:16:10;10.60;;;5.78;;
73557;SDS011;61829;53.286;10.434;2023-11-18T00:18:41;11.88;;;6.55;;
73557;SDS011;61829;53.286;10.434;2023-11-18T00:21:07;10.73;;;6.28;;
73557;SDS011;61829;53.286;10.434;2023-11-18T00:23:33;10.95;;;6.65;;
73557;SDS011;61829;53.286;10.434;2023-11-18T00:26:00;11.48;;;6.28;;
73557;SDS011;61829;53.286;10.434;2023-11-18T00:28:26;9.43;;;5.60;;
73557;SDS011;61829;53.286;10.434;2023-11-18T00:30:51;11.13;;;6.10;;
73557;SDS011;61829;53.286;10.434;2023-11-18T00:33:17;10.80;;;6.05;;
73557;SDS011;61829;53.286;10.434;2023-11-18T00:35:43;9.90;;;5.95;;
73557;SDS011;61829;53.286;10.434;2023-11-18T00:38:10;11.13;;;5.45;;
73557;SDS011;61829;53.286;10.434;2023-11-18T00:40:37;10.93;;;5.82;;
73557;SDS011;61829;53.286;10.434;2023-11-18T00:43:03;11.52;;;6.45;;
73557;SDS011;61829;53.286;10.434;2023-11-18T00:45:29;10.10;;;6.47;;
73557;SDS011;61829;53.286;10.434;2023-11-18T00:47:54;10.40;;;6.15;;
73557;SDS011;61829;53.286;10.434;2023-11-18T00:50:20;13.40;;;5.72;;
73557;SDS011;61829;53.286;10.434;2023-11-18T00:52:46;10.30;;;6.22;;
73557;SDS011;61829;53.286;10.434;2023-11-18T00:55:14;10.15;;;5.78;;
73557;SDS011;61829;53.286;10.434;2023-11-18T00:57:39;9.90;;;6.00;;
73557;SDS011;61829;53.286;10.434;2023-11-18T01:00:11;11.98;;;6.28;;
73557;SDS011;61829;53.286;10.434;2023-11-18T01:05:05;10.82;;;5.97;;
73557;SDS011;61829;53.286;10.434;2023-11-18T01:07:32;9.82;;;5.93;;
73557;SDS011;61829;53.286;10.434;2023-11-18T01:09:59;12.27;;;6.28;;
73557;SDS011;61829;53.286;10.434;2023-11-18T01:12:26;11.43;;;6.00;;
73557;SDS011;61829;53.286;10.434;2023-11-18T01:14:51;11.15;;;5.43;;
73557;SDS011;61829;53.286;10.434;2023-11-18T01:17:17;11.57;;;6.13;;
73557;SDS011;61829;53.286;10.434;2023-11-18T01:19:43;11.75;;;6.32;;
73557;SDS011;61829;53.286;10.434;2023-11-18T01:22:09;10.90;;;6.32;;
73557;SDS011;61829;53.286;10.434;2023-11-18T01:27:02;11.07;;;5.75;;
73557;SDS011;61829;53.286;10.434;2023-11-18T01:29:28;10.73;;;6.03;;
73557;SDS011;61829;53.286;10.434;2023-11-18T01:31:54;11.48;;;6.13;;
73557;SDS011;61829;53.286;10.434;2023-11-18T01:34:21;10.98;;;5.97;;
73557;SDS011;61829;53.286;10.434;2023-11-18T01:36:50;11.35;;;6.43;;
73557;SDS011;61829;53.286;10.434;2023-11-18T01:39:17;11.73;;;6.40;;
73557;SDS011;61829;53.286;10.434;2023-11-18T01:41:43;10.95;;;5.60;;
73557;SDS011;61829;53.286;10.434;2023-11-18T01:44:11;10.35;;;6.20;;
73557;SDS011;61829;53.286;10.434;2023-11-18T01:46:39;11.32;;;6.82;;
73557;SDS011;61829;53.286;10.434;2023-11-18T01:49:11;11.27;;;6.43;;
73557;SDS011;61829;53.286;10.434;2023-11-18T01:51:40;11.02;;;6.47;;
73557;SDS011;61829;53.286;10.434;2023-11-18T01:54:11;10.77;;;6.63;;
73557;SDS011;61829;53.286;10.434;2023-11-18T01:56:43;12.07;;;6.65;;
73557;SDS011;61829;53.286;10.434;2023-11-18T01:59:13;12.45;;;6.20;;
73557;SDS011;61829;53.286;10.434;2023-11-18T02:01:48;12.63;;;7.15;;
73557;SDS011;61829;53.286;10.434;2023-11-18T02:04:18;11.52;;;6.50;;
73557;SDS011;61829;53.286;10.434;2023-11-18T02:06:47;11.57;;;6.65;;
73557;SDS011;61829;53.286;10.434;2023-11-18T02:09:19;11.40;;;6.20;;
73557;SDS011;61829;53.286;10.434;2023-11-18T02:14:47;13.52;;;6.43;;
73557;SDS011;61829;53.286;10.434;2023-11-18T02:17:14;13.68;;;6.45;;
73557;SDS011;61829;53.286;10.434;2023-11-18T02:19:45;15.05;;;7.00;;
73557;SDS011;61829;53.286;10.434;2023-11-18T02:22:13;13.15;;;6.60;;
73557;SDS011;61829;53.286;10.434;2023-11-18T02:24:39;12.63;;;7.18;;
73557;SDS011;61829;53.286;10.434;2023-11-18T02:27:06;11.13;;;6.53;;
73557;SDS011;61829;53.286;10.434;2023-11-18T02:29:36;13.05;;;6.65;;
73557;SDS011;61829;53.286;10.434;2023-11-18T02:32:15;12.00;;;6.32;;
73557;SDS011;61829;53.286;10.434;2023-11-18T02:35:25;11.32;;;6.47;;
73557;SDS011;61829;53.286;10.434;2023-11-18T02:37:44;10.73;;;6.00;;
73557;SDS011;61829;53.286;10.434;2023-11-18T02:40:14;11.25;;;6.53;;
73557;SDS011;61829;53.286;10.434;2023-11-18T02:42:48;12.57;;;6.72;;
73557;SDS011;61829;53.286;10.434;2023-11-18T02:45:18;11.60;;;6.18;;
73557;SDS011;61829;53.286;10.434;2023-11-18T02:47:46;9.93;;;6.00;;
73557;SDS011;61829;53.286;10.434;2023-11-18T02:50:12;12.60;;;6.97;;
73557;SDS011;61829;53.286;10.434;2023-11-18T02:52:39;11.98;;;6.10;;
73557;SDS011;61829;53.286;10.434;2023-11-18T02:55:05;13.68;;;6.88;;
73557;SDS011;61829;53.286;10.434;2023-11-18T02:57:33;11.73;;;6.88;;
73557;SDS011;61829;53.286;10.434;2023-11-18T02:59:59;13.63;;;7.07;;
73557;SDS011;61829;53.286;10.434;2023-11-18T03:02:29;10.88;;;6.53;;
73557;SDS011;61829;53.286;10.434;2023-11-18T03:04:57;12.38;;;6.55;;
73557;SDS011;61829;53.286;10.434;2023-11-18T03:07:23;12.43;;;6.22;;
73557;SDS011;61829;53.286;10.434;2023-11-18T03:09:49;10.48;;;6.03;;
73557;SDS011;61829;53.286;10.434;2023-11-18T03:12:15;12.60;;;6.35;;
73557;SDS011;61829;53.286;10.434;2023-11-18T03:14:41;11.60;;;6.25;;
73557;SDS011;61829;53.286;10.434;2023-11-18T03:17:07;11.45;;;6.25;;
73557;SDS011;61829;53.286;10.434;2023-11-18T03:19:36;12.63;;;6.22;;
73557;SDS011;61829;53.286;10.434;2023-11-18T03:22:02;12.32;;;6.35;;
73557;SDS011;61829;53.286;10.434;2023-11-18T03:24:28;12.68;;;6.93;;
73557;SDS011;61829;53.286;10.434;2023-11-18T03:26:54;10.00;;;5.93;;
73557;SDS011;61829;53.286;10.434;2023-11-18T03:29:21;10.93;;;6.55;;
73557;SDS011;61829;53.286;10.434;2023-11-18T03:31:46;12.13;;;6.20;;
73557;SDS011;61829;53.286;10.434;2023-11-18T03:34:17;11.80;;;6.95;;
73557;SDS011;61829;53.286;10.434;2023-11-18T03:36:48;12.02;;;6.82;;
73557;SDS011;61829;53.286;10.434;2023-11-18T03:39:14;12.13;;;6.82;;
73557;SDS011;61829;53.286;10.434;2023-11-18T03:41:41;10.27;;;5.55;;
73557;SDS011;61829;53.286;10.434;2023-11-18T03:44:11;12.40;;;6.20;;
73557;SDS011;61829;53.286;10.434;2023-11-18T03:46:38;11.00;;;5.43;;
73557;SDS011;61829;53.286;10.434;2023-11-18T03:49:04;9.55;;;6.03;;
73557;SDS011;61829;53.286;10.434;2023-11-18T03:51:30;9.10;;;5.50;;
73557;SDS011;61829;53.286;10.434;2023-11-18T03:53:57;9.27;;;5.65;;
73557;SDS011;61829;53.286;10.434;2023-11-18T03:56:23;10.77;;;6.70;;
73557;SDS011;61829;53.286;10.434;2023-11-18T03:58:49;11.82;;;6.43;;
73557;SDS011;61829;53.286;10.434;2023-11-18T04:01:24;13.20;;;6.20;;
73557;SDS011;61829;53.286;10.434;2023-11-18T04:06:30;13.35;;;5.82;;
73557;SDS011;61829;53.286;10.434;2023-11-18T04:08:56;12.93;;;6.72;;
73557;SDS011;61829;53.286;10.434;2023-11-18T04:11:21;10.93;;;5.65;;
73557;SDS011;61829;53.286;10.434;2023-11-18T04:13:47;8.63;;;5.78;;
73557;SDS011;61829;53.286;10.434;2023-11-18T04:16:13;10.00;;;5.75;;
73557;SDS011;61829;53.286;10.434;2023-11-18T04:18:43;10.60;;;5.45;;
73557;SDS011;61829;53.286;10.434;2023-11-18T04:21:10;11.13;;;5.22;;
73557;SDS011;61829;53.286;10.434;2023-11-18T04:23:40;11.68;;;6.25;;
73557;SDS011;61829;53.286;10.434;2023-11-18T04:26:09;10.88;;;5.60;;
73557;SDS011;61829;53.286;10.434;2023-11-18T04:28:35;11.00;;;5.80;;
73557;SDS011;61829;53.286;10.434;2023-11-18T04:31:02;10.88;;;5.53;;
73557;SDS011;61829;53.286;10.434;2023-11-18T04:33:28;9.70;;;5.55;;
73557;SDS011;61829;53.286;10.434;2023-11-18T04:35:54;10.32;;;5.70;;
73557;SDS011;61829;53.286;10.434;2023-11-18T04:38:24;9.13;;;5.28;;
73557;SDS011;61829;53.286;10.434;2023-11-18T04:40:51;12.05;;;6.13;;
73557;SDS011;61829;53.286;10.434;2023-11-18T04:43:20;9.50;;;5.35;;
73557;SDS011;61829;53.286;10.434;2023-11-18T04:45:47;9.98;;;5.82;;
73557;SDS011;61829;53.286;10.434;2023-11-18T04:48:13;11.13;;;5.93;;
73557;SDS011;61829;53.286;10.434;2023-11-18T04:50:39;10.82;;;5.88;;
73557;SDS011;61829;53.286;10.434;2023-11-18T04:53:06;9.73;;;5.32;;
73557;SDS011;61829;53.286;10.434;2023-11-18T04:55:36;8.35;;;5.35;;
73557;SDS011;61829;53.286;10.434;2023-11-18T04:58:03;9.75;;;5.43;;
73557;SDS011;61829;53.286;10.434;2023-11-18T05:00:33;9.98;;;5.82;;
73557;SDS011;61829;53.286;10.434;2023-11-18T05:02:59;9.45;;;4.53;;
73557;SDS011;61829;53.286;10.434;2023-11-18T05:05:25;9.32;;;5.50;;
73557;SDS011;61829;53.286;10.434;2023-11-18T05:07:52;9.85;;;5.13;;
73557;SDS011;61829;53.286;10.434;2023-11-18T05:10:18;10.02;;;5.20;;
73557;SDS011;61829;53.286;10.434;2023-11-18T05:12:44;9.68;;;4.88;;
73557;SDS011;61829;53.286;10.434;2023-11-18T05:15:10;9.88;;;5.95;;
73557;SDS011;61829;53.286;10.434;2023-11-18T05:17:36;10.23;;;5.30;;
73557;SDS011;61829;53.286;10.434;2023-11-18T05:20:03;10.18;;;5.68;;
73557;SDS011;61829;53.286;10.434;2023-11-18T05:24:56;8.20;;;4.25;;
73557;SDS011;61829;53.286;10.434;2023-11-18T05:27:23;9.38;;;4.93;;
73557;SDS011;61829;53.286;10.434;2023-11-18T05:29:49;8.63;;;4.70;;
73557;SDS011;61829;53.286;10.434;2023-11-18T05:32:20;8.20;;;4.72;;
73557;SDS011;61829;53.286;10.434;2023-11-18T05:34:48;8.40;;;4.38;;
73557;SDS011;61829;53.286;10.434;2023-11-18T05:37:16;9.65;;;4.55;;
73557;SDS011;61829;53.286;10.434;2023-11-18T05:39:44;8.00;;;3.92;;
73557;SDS011;61829;53.286;10.434;2023-11-18T05:42:11;8.88;;;4.80;;
73557;SDS011;61829;53.286;10.434;2023-11-18T05:44:37;8.32;;;4.13;;
73557;SDS011;61829;53.286;10.434;2023-11-18T05:47:05;8.80;;;4.60;;
73557;SDS011;61829;53.286;10.434;2023-11-18T05:52:01;7.50;;;4.30;;
73557;SDS011;61829;53.286;10.434;2023-11-18T05:54:27;10.00;;;4.63;;
73557;SDS011;61829;53.286;10.434;2023-11-18T05:56:53;9.45;;;4.53;;
73557;SDS011;61829;53.286;10.434;2023-11-18T05:59:19;7.97;;;4.57;;
73557;SDS011;61829;53.286;10.434;2023-11-18T06:01:45;7.05;;;4.05;;
73557;SDS011;61829;53.286;10.434;2023-11-18T06:04:13;8.65;;;4.43;;
73557;SDS011;61829;53.286;10.434;2023-11-18T06:06:39;9.98;;;4.35;;
73557;SDS011;61829;53.286;10.434;2023-11-18T06:09:04;9.30;;;4.85;;
73557;SDS011;61829;53.286;10.434;2023-11-18T06:11:40;8.77;;;4.72;;
73557;SDS011;61829;53.286;10.434;2023-11-18T06:14:06;8.80;;;4.47;;
73557;SDS011;61829;53.286;10.434;2023-11-18T06:16:34;8.30;;;4.45;;
73557;SDS011;61829;53.286;10.434;2023-11-18T06:19:01;8.10;;;4.00;;
73557;SDS011;61829;53.286;10.434;2023-11-18T06:21:30;10.20;;;4.70;;
73557;SDS011;61829;53.286;10.434;2023-11-18T06:23:57;10.70;;;4.90;;
73557;SDS011;61829;53.286;10.434;2023-11-18T06:26:24;8.25;;;4.20;;
73557;SDS011;61829;53.286;10.434;2023-11-18T06:28:52;8.88;;;4.93;;
73557;SDS011;61829;53.286;10.434;2023-11-18T06:31:22;9.75;;;5.15;;
73557;SDS011;61829;53.286;10.434;2023-11-18T06:38:49;9.10;;;4.45;;
73557;SDS011;61829;53.286;10.434;2023-11-18T06:41:19;11.32;;;4.85;;
73557;SDS011;61829;53.286;10.434;2023-11-18T06:43:48;10.10;;;5.13;;
73557;SDS011;61829;53.286;10.434;2023-11-18T06:46:38;10.52;;;5.70;;
73557;SDS011;61829;53.286;10.434;2023-11-18T06:49:05;9.05;;;4.80;;
73557;SDS011;61829;53.286;10.434;2023-11-18T06:51:40;9.25;;;4.60;;
73557;SDS011;61829;53.286;10.434;2023-11-18T06:54:07;10.38;;;5.43;;
73557;SDS011;61829;53.286;10.434;2023-11-18T06:56:36;10.82;;;4.97;;
73557;SDS011;61829;53.286;10.434;2023-11-18T06:59:06;10.27;;;4.93;;
73557;SDS011;61829;53.286;10.434;2023-11-18T07:01:35;13.07;;;6.28;;
73557;SDS011;61829;53.286;10.434;2023-11-18T07:04:01;10.70;;;5.40;;
73557;SDS011;61829;53.286;10.434;2023-11-18T07:06:29;8.48;;;4.40;;
73557;SDS011;61829;53.286;10.434;2023-11-18T07:08:56;10.23;;;5.53;;
73557;SDS011;61829;53.286;10.434;2023-11-18T07:11:26;10.38;;;5.10;;
73557;SDS011;61829;53.286;10.434;2023-11-18T07:13:53;9.00;;;4.70;;
73557;SDS011;61829;53.286;10.434;2023-11-18T07:16:23;10.90;;;5.10;;
73557;SDS011;61829;53.286;10.434;2023-11-18T07:18:49;13.40;;;6.35;;
73557;SDS011;61829;53.286;10.434;2023-11-18T07:21:15;13.75;;;6.22;;
73557;SDS011;61829;53.286;10.434;2023-11-18T07:23:41;12.10;;;5.45;;
73557;SDS011;61829;53.286;10.434;2023-11-18T07:26:08;15.48;;;6.32;;
73557;SDS011;61829;53.286;10.434;2023-11-18T07:28:35;12.60;;;5.30;;
73557;SDS011;61829;53.286;10.434;2023-11-18T07:31:01;12.38;;;6.38;;
73557;SDS011;61829;53.286;10.434;2023-11-18T07:33:30;14.68;;;6.97;;
73557;SDS011;61829;53.286;10.434;2023-11-18T07:35:59;14.05;;;7.07;;
73557;SDS011;61829;53.286;10.434;2023-11-18T07:38:25;12.88;;;6.47;;
73557;SDS011;61829;53.286;10.434;2023-11-18T07:40:52;11.52;;;5.55;;
73557;SDS011;61829;53.286;10.434;2023-11-18T07:43:22;9.82;;;5.18;;
73557;SDS011;61829;53.286;10.434;2023-11-18T07:45:48;12.10;;;5.47;;
73557;SDS011;61829;53.286;10.434;2023-11-18T07:48:21;17.58;;;6.30;;
73557;SDS011;61829;53.286;10.434;2023-11-18T07:50:46;19.58;;;6.32;;
73557;SDS011;61829;53.286;10.434;2023-11-18T07:53:12;16.00;;;6.00;;
73557;SDS011;61829;53.286;10.434;2023-11-18T07:55:39;12.57;;;5.68;;
73557;SDS011;61829;53.286;10.434;2023-11-18T07:58:05;11.98;;;5.85;;
73557;SDS011;61829;53.286;10.434;2023-11-18T08:00:39;11.00;;;5.20;;
73557;SDS011;61829;53.286;10.434;2023-11-18T08:03:10;10.27;;;5.88;;
73557;SDS011;61829;53.286;10.434;2023-11-18T08:05:41;9.35;;;4.57;;
73557;SDS011;61829;53.286;10.434;2023-11-18T08:08:11;11.18;;;4.85;;
73557;SDS011;61829;53.286;10.434;2023-11-18T08:10:38;11.18;;;5.25;;
73557;SDS011;61829;53.286;10.434;2023-11-18T08:13:05;10.32;;;4.80;;
73557;SDS011;61829;53.286;10.434;2023-11-18T08:15:37;10.02;;;5.13;;
73557;SDS011;61829;53.286;10.434;2023-11-18T08:18:04;10.32;;;4.82;;
73557;SDS011;61829;53.286;10.434;2023-11-18T08:20:32;11.43;;;5.50;;
73557;SDS011;61829;53.286;10.434;2023-11-18T08:22:58;10.73;;;4.95;;
73557;SDS011;61829;53.286;10.434;2023-11-18T08:25:25;8.70;;;4.47;;
73557;SDS011;61829;53.286;10.434;2023-11-18T08:27:51;10.23;;;4.90;;
73557;SDS011;61829;53.286;10.434;2023-11-18T08:30:17;10.70;;;4.78;;
73557;SDS011;61829;53.286;10.434;2023-11-18T08:32:45;8.73;;;4.55;;
73557;SDS011;61829;53.286;10.434;2023-11-18T08:35:12;9.13;;;5.05;;
73557;SDS011;61829;53.286;10.434;2023-11-18T08:37:39;11.85;;;4.60;;
73557;SDS011;61829;53.286;10.434;2023-11-18T08:40:06;8.93;;;4.57;;
73557;SDS011;61829;53.286;10.434;2023-11-18T08:42:46;10.30;;;4.80;;
73557;SDS011;61829;53.286;10.434;2023-11-18T08:45:17;9.23;;;4.38;;
73557;SDS011;61829;53.286;10.434;2023-11-18T08:47:45;10.27;;;4.85;;
73557;SDS011;61829;53.286;10.434;2023-11-18T08:50:13;8.65;;;4.35;;
73557;SDS011;61829;53.286;10.434;2023-11-18T08:52:44;10.80;;;5.03;;
73557;SDS011;61829;53.286;10.434;2023-11-18T08:55:13;8.10;;;4.28;;
73557;SDS011;61829;53.286;10.434;2023-11-18T08:57:51;9.35;;;5.60;;
73557;SDS011;61829;53.286;10.434;2023-11-18T09:00:40;8.40;;;4.15;;
73557;SDS011;61829;53.286;10.434;2023-11-18T09:03:13;9.30;;;4.22;;
73557;SDS011;61829;53.286;10.434;2023-11-18T09:06:09;9.30;;;4.50;;
73557;SDS011;61829;53.286;10.434;2023-11-18T09:08:51;9.40;;;4.38;;
73557;SDS011;61829;53.286;10.434;2023-11-18T09:11:23;9.18;;;4.65;;
73557;SDS011;61829;53.286;10.434;2023-11-18T09:13:52;7.53;;;4.10;;
73557;SDS011;61829;53.286;10.434;2023-11-18T09:16:20;8.30;;;4.15;;
73557;SDS011;61829;53.286;10.434;2023-11-18T09:18:54;10.00;;;4.70;;
73557;SDS011;61829;53.286;10.434;2023-11-18T09:21:24;9.55;;;4.07;;
73557;SDS011;61829;53.286;10.434;2023-11-18T09:24:00;9.80;;;4.85;;
73557;SDS011;61829;53.286;10.434;2023-11-18T09:26:31;9.00;;;4.93;;
73557;SDS011;61829;53.286;10.434;2023-11-18T09:28:56;10.40;;;5.05;;
73557;SDS011;61829;53.286;10.434;2023-11-18T09:31:23;8.85;;;4.70;;
73557;SDS011;61829;53.286;10.434;2023-11-18T09:33:49;11.10;;;4.85;;
73557;SDS011;61829;53.286;10.434;2023-11-18T09:36:17;8.60;;;4.25;;
73557;SDS011;61829;53.286;10.434;2023-11-18T09:38:44;7.05;;;4.00;;
73557;SDS011;61829;53.286;10.434;2023-11-18T09:41:13;11.05;;;4.05;;
73557;SDS011;61829;53.286;10.434;2023-11-18T09:43:40;8.00;;;3.45;;
73557;SDS011;61829;53.286;10.434;2023-11-18T09:52:15;5.55;;;3.20;;
73557;SDS011;61829;53.286;10.434;2023-11-18T09:55:02;5.03;;;2.60;;
73557;SDS011;61829;53.286;10.434;2023-11-18T09:57:32;4.75;;;2.35;;
73557;SDS011;61829;53.286;10.434;2023-11-18T10:00:05;4.82;;;2.40;;
73557;SDS011;61829;53.286;10.434;2023-11-18T10:02:52;7.32;;;3.05;;
73557;SDS011;61829;53.286;10.434;2023-11-18T10:05:21;5.00;;;3.15;;
73557;SDS011;61829;53.286;10.434;2023-11-18T10:07:48;5.78;;;2.40;;
73557;SDS011;61829;53.286;10.434;2023-11-18T10:10:16;5.78;;;2.60;;
73557;SDS011;61829;53.286;10.434;2023-11-18T10:12:42;5.95;;;2.83;;
73557;SDS011;61829;53.286;10.434;2023-11-18T10:15:18;3.50;;;1.83;;
73557;SDS011;61829;53.286;10.434;2023-11-18T10:17:49;3.85;;;1.98;;
73557;SDS011;61829;53.286;10.434;2023-11-18T10:23:12;4.22;;;2.38;;
73557;SDS011;61829;53.286;10.434;2023-11-18T10:25:51;4.85;;;2.15;;
73557;SDS011;61829;53.286;10.434;2023-11-18T10:30:56;4.35;;;2.10;;
73557;SDS011;61829;53.286;10.434;2023-11-18T10:33:33;5.10;;;1.80;;
73557;SDS011;61829;53.286;10.434;2023-11-18T10:36:03;3.40;;;1.83;;
73557;SDS011;61829;53.286;10.434;2023-11-18T10:38:33;3.53;;;1.70;;
73557;SDS011;61829;53.286;10.434;2023-11-18T10:41:09;4.75;;;2.33;;
73557;SDS011;61829;53.286;10.434;2023-11-18T10:43:37;3.38;;;1.75;;
73557;SDS011;61829;53.286;10.434;2023-11-18T10:46:06;4.18;;;1.80;;
73557;SDS011;61829;53.286;10.434;2023-11-18T10:48:44;3.60;;;1.75;;
73557;SDS011;61829;53.286;10.434;2023-11-18T10:51:13;3.95;;;2.00;;
73557;SDS011;61829;53.286;10.434;2023-11-18T10:53:43;5.22;;;2.10;;
73557;SDS011;61829;53.286;10.434;2023-11-18T10:56:26;3.92;;;2.20;;
73557;SDS011;61829;53.286;10.434;2023-11-18T10:58:58;4.80;;;2.30;;
73557;SDS011;61829;53.286;10.434;2023-11-18T11:01:32;4.78;;;1.90;;
73557;SDS011;61829;53.286;10.434;2023-11-18T11:04:00;3.88;;;1.80;;
73557;SDS011;61829;53.286;10.434;2023-11-18T11:06:29;2.60;;;1.40;;
73557;SDS011;61829;53.286;10.434;2023-11-18T11:08:59;3.28;;;1.70;;
73557;SDS011;61829;53.286;10.434;2023-11-18T11:11:34;2.92;;;1.77;;
73557;SDS011;61829;53.286;10.434;2023-11-18T11:14:12;5.13;;;1.92;;
73557;SDS011;61829;53.286;10.434;2023-11-18T11:16:47;3.15;;;2.15;;
73557;SDS011;61829;53.286;10.434;2023-11-18T11:19:36;5.05;;;2.40;;
73557;SDS011;61829;53.286;10.434;2023-11-18T11:22:15;3.15;;;1.90;;
73557;SDS011;61829;53.286;10.434;2023-11-18T11:28:07;3.90;;;2.05;;
73557;SDS011;61829;53.286;10.434;2023-11-18T11:30:42;5.05;;;2.45;;
73557;SDS011;61829;53.286;10.434;2023-11-18T11:35:43;4.93;;;2.22;;
73557;SDS011;61829;53.286;10.434;2023-11-18T11:38:14;5.70;;;2.85;;
73557;SDS011;61829;53.286;10.434;2023-11-18T11:40:42;4.38;;;2.33;;
73557;SDS011;61829;53.286;10.434;2023-11-18T11:43:11;4.55;;;2.22;;
73557;SDS011;61829;53.286;10.434;2023-11-18T11:45:41;4.78;;;2.50;;
73557;SDS011;61829;53.286;10.434;2023-11-18T11:48:08;4.43;;;2.50;;
73557;SDS011;61829;53.286;10.434;2023-11-18T11:53:26;5.40;;;2.63;;
73557;SDS011;61829;53.286;10.434;2023-11-18T11:55:58;6.03;;;2.72;;
73557;SDS011;61829;53.286;10.434;2023-11-18T11:58:35;4.70;;;2.50;;
73557;SDS011;61829;53.286;10.434;2023-11-18T12:04:00;4.95;;;2.72;;
73557;SDS011;61829;53.286;10.434;2023-11-18T12:06:32;4.28;;;2.00;;
73557;SDS011;61829;53.286;10.434;2023-11-18T12:09:03;4.90;;;2.25;;
73557;SDS011;61829;53.286;10.434;2023-11-18T12:11:34;3.85;;;2.10;;
73557;SDS011;61829;53.286;10.434;2023-11-18T12:14:08;3.65;;;1.92;;
73557;SDS011;61829;53.286;10.434;2023-11-18T12:16:59;3.25;;;2.03;;
73557;SDS011;61829;53.286;10.434;2023-11-18T12:19:33;3.72;;;2.00;;
73557;SDS011;61829;53.286;10.434;2023-11-18T12:22:22;4.35;;;1.88;;
73557;SDS011;61829;53.286;10.434;2023-11-18T12:41:03;2.70;;;1.52;;
73557;SDS011;61829;53.286;10.434;2023-11-18T12:49:21;4.47;;;2.05;;
73557;SDS011;61829;53.286;10.434;2023-11-18T12:51:51;4.53;;;2.00;;
73557;SDS011;61829;53.286;10.434;2023-11-18T12:54:19;3.67;;;1.90;;
73557;SDS011;61829;53.286;10.434;2023-11-18T12:56:47;4.68;;;1.98;;
73557;SDS011;61829;53.286;10.434;2023-11-18T12:59:19;2.78;;;1.50;;
73557;SDS011;61829;53.286;10.434;2023-11-18T13:01:52;3.63;;;1.50;;
73557;SDS011;61829;53.286;10.434;2023-11-18T13:04:24;3.08;;;1.85;;
73557;SDS011;61829;53.286;10.434;2023-11-18T13:06:52;3.67;;;2.13;;
73557;SDS011;61829;53.286;10.434;2023-11-18T13:09:18;8.68;;;2.60;;
73557;SDS011;61829;53.286;10.434;2023-11-18T13:11:54;7.18;;;2.88;;
73557;SDS011;61829;53.286;10.434;2023-11-18T13:14:30;5.60;;;2.50;;
73557;SDS011;61829;53.286;10.434;2023-11-18T13:17:01;5.00;;;2.60;;
73557;SDS011;61829;53.286;10.434;2023-11-18T13:19:47;4.65;;;2.45;;
73557;SDS011;61829;53.286;10.434;2023-11-18T13:22:16;4.03;;;2.30;;
73557;SDS011;61829;53.286;10.434;2023-11-18T13:24:45;4.80;;;2.10;;
73557;SDS011;61829;53.286;10.434;2023-11-18T13:27:16;5.35;;;1.95;;
73557;SDS011;61829;53.286;10.434;2023-11-18T13:29:46;4.55;;;2.30;;
73557;SDS011;61829;53.286;10.434;2023-11-18T13:32:15;4.60;;;2.00;;
73557;SDS011;61829;53.286;10.434;2023-11-18T13:34:42;4.60;;;2.28;;
73557;SDS011;61829;53.286;10.434;2023-11-18T13:37:08;3.38;;;2.10;;
73557;SDS011;61829;53.286;10.434;2023-11-18T13:39:38;4.47;;;2.05;;
73557;SDS011;61829;53.286;10.434;2023-11-18T13:42:17;3.38;;;1.92;;
73557;SDS011;61829;53.286;10.434;2023-11-18T13:44:48;3.05;;;1.92;;
73557;SDS011;61829;53.286;10.434;2023-11-18T13:47:21;4.28;;;2.00;;
73557;SDS011;61829;53.286;10.434;2023-11-18T13:49:53;3.40;;;2.00;;
73557;SDS011;61829;53.286;10.434;2023-11-18T13:52:19;4.03;;;1.73;;
73557;SDS011;61829;53.286;10.434;2023-11-18T13:54:46;2.95;;;1.80;;
73557;SDS011;61829;53.286;10.434;2023-11-18T13:57:13;4.55;;;2.50;;
73557;SDS011;61829;53.286;10.434;2023-11-18T13:59:39;5.88;;;2.58;;
73557;SDS011;61829;53.286;10.434;2023-11-18T14:02:05;5.07;;;2.67;;
73557;SDS011;61829;53.286;10.434;2023-11-18T14:04:32;5.25;;;3.30;;
73557;SDS011;61829;53.286;10.434;2023-11-18T14:06:59;5.70;;;3.35;;
73557;SDS011;61829;53.286;10.434;2023-11-18T14:09:35;4.97;;;2.65;;
73557;SDS011;61829;53.286;10.434;2023-11-18T14:12:02;5.10;;;3.28;;
73557;SDS011;61829;53.286;10.434;2023-11-18T14:14:31;5.88;;;3.25;;
73557;SDS011;61829;53.286;10.434;2023-11-18T14:17:02;4.78;;;2.58;;
73557;SDS011;61829;53.286;10.434;2023-11-18T14:19:31;5.82;;;3.10;;
73557;SDS011;61829;53.286;10.434;2023-11-18T14:22:00;5.90;;;3.40;;
73557;SDS011;61829;53.286;10.434;2023-11-18T14:24:26;7.50;;;3.25;;
73557;SDS011;61829;53.286;10.434;2023-11-18T14:26:56;6.13;;;3.42;;
73557;SDS011;61829;53.286;10.434;2023-11-18T14:29:22;5.38;;;2.90;;
73557;SDS011;61829;53.286;10.434;2023-11-18T14:31:48;5.15;;;3.08;;
73557;SDS011;61829;53.286;10.434;2023-11-18T14:34:14;4.97;;;2.67;;
73557;SDS011;61829;53.286;10.434;2023-11-18T14:36:41;5.00;;;2.70;;
73557;SDS011;61829;53.286;10.434;2023-11-18T14:39:08;5.38;;;2.72;;
73557;SDS011;61829;53.286;10.434;2023-11-18T14:41:39;6.55;;;3.13;;
73557;SDS011;61829;53.286;10.434;2023-11-18T14:44:06;3.63;;;2.35;;
73557;SDS011;61829;53.286;10.434;2023-11-18T14:46:35;5.28;;;2.40;;
73557;SDS011;61829;53.286;10.434;2023-11-18T14:49:06;4.75;;;2.47;;
73557;SDS011;61829;53.286;10.434;2023-11-18T14:51:32;7.28;;;3.00;;
73557;SDS011;61829;53.286;10.434;2023-11-18T14:53:57;4.82;;;2.60;;
73557;SDS011;61829;53.286;10.434;2023-11-18T14:56:23;4.55;;;2.28;;
73557;SDS011;61829;53.286;10.434;2023-11-18T14:58:49;4.15;;;2.50;;
73557;SDS011;61829;53.286;10.434;2023-11-18T15:01:15;5.03;;;2.80;;
73557;SDS011;61829;53.286;10.434;2023-11-18T15:03:46;6.57;;;2.80;;
73557;SDS011;61829;53.286;10.434;2023-11-18T15:06:12;3.63;;;2.35;;
73557;SDS011;61829;53.286;10.434;2023-11-18T15:08:38;4.55;;;2.40;;
73557;SDS011;61829;53.286;10.434;2023-11-18T15:11:06;4.70;;;2.70;;
73557;SDS011;61829;53.286;10.434;2023-11-18T15:13:33;4.00;;;2.38;;
73557;SDS011;61829;53.286;10.434;2023-11-18T15:15:59;6.68;;;2.33;;
73557;SDS011;61829;53.286;10.434;2023-11-18T15:18:25;5.60;;;2.80;;
73557;SDS011;61829;53.286;10.434;2023-11-18T15:20:51;6.03;;;2.92;;
73557;SDS011;61829;53.286;10.434;2023-11-18T15:23:17;5.63;;;2.70;;
73557;SDS011;61829;53.286;10.434;2023-11-18T15:25:47;5.63;;;2.70;;
73557;SDS011;61829;53.286;10.434;2023-11-18T15:28:15;5.25;;;2.60;;
73557;SDS011;61829;53.286;10.434;2023-11-18T15:30:44;4.63;;;2.58;;
73557;SDS011;61829;53.286;10.434;2023-11-18T15:33:10;3.97;;;2.17;;
73557;SDS011;61829;53.286;10.434;2023-11-18T15:35:38;4.53;;;2.30;;
73557;SDS011;61829;53.286;10.434;2023-11-18T15:38:06;4.43;;;2.33;;
73557;SDS011;61829;53.286;10.434;2023-11-18T15:40:35;4.88;;;2.40;;
73557;SDS011;61829;53.286;10.434;2023-11-18T15:43:05;5.45;;;2.35;;
73557;SDS011;61829;53.286;10.434;2023-11-18T15:45:36;7.97;;;2.80;;